Time;durP1;ratioP1;P1;durP2;ratioP2;P2;SDS_P1;SDS_P2;PMS_P1;PMS_P2;Temp;Humidity;BMP_temperature;BMP_pressure;BME280_temperature;BME280_humidity;BME280_pressure;Samples;Min_cycle;Max_cycle;Signal;HPM_P1;HPM_P2
2023/10/16 00:02:14;;;;;;;20.70;10.50;;;;;;;;;;5062076;28;20450;-66
2023/10/16 00:04:43;;;;;;;17.02;10.55;;;;;;;;;;5063135;28;20486;-65
2023/10/16 00:07:11;;;;;;;18.10;10.85;;;;;;;;;;5059700;28;20408;-66
2023/10/16 00:09:39;;;;;;;18.75;11.48;;;;;;;;;;5062412;28;20411;-66
2023/10/16 00:12:07;;;;;;;18.23;10.85;;;;;;;;;;5060074;28;20495;-65
2023/10/16 00:14:35;;;;;;;18.42;11.38;;;;;;;;;;5061619;28;20408;-66
2023/10/16 00:17:03;;;;;;;17.07;11.00;;;;;;;;;;5062417;28;20886;-65
2023/10/16 00:19:33;;;;;;;19.08;11.73;;;;;;;;;;5052715;28;20415;-66
2023/10/16 00:22:00;;;;;;;19.42;12.30;;;;;;;;;;5063153;28;20948;-65
2023/10/16 00:24:28;;;;;;;20.15;12.13;;;;;;;;;;5065095;28;20417;-65
2023/10/16 00:27:00;;;;;;;21.20;12.32;;;;;;;;;;5063969;28;20446;-66
2023/10/16 00:29:35;;;;;;;20.88;12.68;;;;;;;;;;5062166;28;20407;-66
2023/10/16 00:32:07;;;;;;;22.23;12.70;;;;;;;;;;5062948;28;20403;-65
2023/10/16 00:34:35;;;;;;;22.37;13.07;;;;;;;;;;5060850;28;20492;-65
2023/10/16 00:37:04;;;;;;;25.45;13.35;;;;;;;;;;5059546;28;20411;-66
2023/10/16 00:39:32;;;;;;;22.83;12.90;;;;;;;;;;5061192;28;20432;-65
2023/10/16 00:41:59;;;;;;;23.75;13.75;;;;;;;;;;5059350;28;20934;-65
2023/10/16 00:44:33;;;;;;;22.50;13.43;;;;;;;;;;5061716;28;20465;-66
2023/10/16 00:47:00;;;;;;;28.02;14.43;;;;;;;;;;5064126;28;20498;-65
2023/10/16 00:49:28;;;;;;;22.35;13.15;;;;;;;;;;5064092;28;20405;-65
2023/10/16 00:51:56;;;;;;;21.38;12.85;;;;;;;;;;5060996;28;20435;-66
2023/10/16 00:54:28;;;;;;;23.13;13.02;;;;;;;;;;5062138;28;20412;-65
2023/10/16 00:56:57;;;;;;;21.58;13.65;;;;;;;;;;5060073;28;20409;-65
2023/10/16 00:59:24;;;;;;;21.58;13.75;;;;;;;;;;5060082;28;20512;-65
2023/10/16 01:02:06;;;;;;;23.45;14.40;;;;;;;;;;5061929;28;20403;-66
2023/10/16 01:04:34;;;;;;;23.55;13.98;;;;;;;;;;5058895;28;20420;-65
2023/10/16 01:07:05;;;;;;;21.88;13.80;;;;;;;;;;5061418;28;20407;-65
2023/10/16 01:09:35;;;;;;;23.93;13.97;;;;;;;;;;5060623;28;20517;-65
2023/10/16 01:12:06;;;;;;;19.90;13.43;;;;;;;;;;5059389;28;20435;-64
2023/10/16 01:14:35;;;;;;;26.10;13.75;;;;;;;;;;5060821;28;20417;-65
2023/10/16 01:17:02;;;;;;;23.90;13.50;;;;;;;;;;5062696;28;20417;-65
2023/10/16 01:19:29;;;;;;;24.63;13.97;;;;;;;;;;5059711;28;20436;-66
2023/10/16 01:21:58;;;;;;;22.10;13.80;;;;;;;;;;5060063;28;20448;-65
2023/10/16 01:24:27;;;;;;;23.25;13.68;;;;;;;;;;5061567;28;20418;-65
2023/10/16 01:27:00;;;;;;;24.77;14.80;;;;;;;;;;5059901;28;20604;-65
2023/10/16 01:29:28;;;;;;;25.33;14.02;;;;;;;;;;5058942;28;20412;-65
2023/10/16 01:31:55;;;;;;;22.98;13.68;;;;;;;;;;5060943;28;20407;-65
2023/10/16 01:34:23;;;;;;;25.27;14.65;;;;;;;;;;5055106;28;20469;-66
2023/10/16 01:36:51;;;;;;;25.33;14.27;;;;;;;;;;5059064;28;20438;-65
2023/10/16 01:42:11;;;;;;;23.58;13.60;;;;;;;;;;5057043;28;20780;-65
2023/10/16 01:44:39;;;;;;;21.50;13.18;;;;;;;;;;5058830;28;20409;-66
2023/10/16 01:47:13;;;;;;;24.73;12.98;;;;;;;;;;5059194;28;20405;-66
2023/10/16 01:49:41;;;;;;;24.73;12.88;;;;;;;;;;5059317;28;20409;-66
2023/10/16 01:52:10;;;;;;;19.60;12.18;;;;;;;;;;5058867;28;20508;-66
2023/10/16 01:54:38;;;;;;;19.75;11.85;;;;;;;;;;5060016;28;20415;-65
2023/10/16 01:57:10;;;;;;;21.15;11.80;;;;;;;;;;5061353;28;20408;-65
2023/10/16 01:59:39;;;;;;;21.67;12.30;;;;;;;;;;5059777;28;20866;-65
2023/10/16 02:02:06;;;;;;;20.70;11.50;;;;;;;;;;5058983;28;20419;-65
2023/10/16 02:04:33;;;;;;;21.73;12.23;;;;;;;;;;5060058;28;20575;-66
2023/10/16 02:07:00;;;;;;;22.00;12.40;;;;;;;;;;5060227;28;20412;-65
2023/10/16 02:09:31;;;;;;;21.60;13.23;;;;;;;;;;5061082;28;20909;-66
2023/10/16 02:11:59;;;;;;;20.67;11.98;;;;;;;;;;5063913;28;20406;-65
2023/10/16 02:14:27;;;;;;;23.15;13.20;;;;;;;;;;5064473;28;20760;-65
2023/10/16 02:16:54;;;;;;;18.83;12.13;;;;;;;;;;5062241;28;20407;-65
2023/10/16 02:19:21;;;;;;;20.80;12.75;;;;;;;;;;5049763;28;20988;-65
2023/10/16 02:21:50;;;;;;;21.02;13.02;;;;;;;;;;5053879;28;20499;-65
2023/10/16 02:24:17;;;;;;;22.17;12.93;;;;;;;;;;5053710;28;20507;-65
2023/10/16 02:26:56;;;;;;;22.17;13.18;;;;;;;;;;5055829;28;20470;-65
2023/10/16 02:29:24;;;;;;;23.02;15.13;;;;;;;;;;5064851;28;20417;-65
2023/10/16 02:31:52;;;;;;;23.10;13.98;;;;;;;;;;5069252;28;20477;-65
2023/10/16 02:34:22;;;;;;;25.48;14.82;;;;;;;;;;5063077;28;20475;-66
2023/10/16 02:36:50;;;;;;;21.95;13.73;;;;;;;;;;5064538;28;20407;-65
2023/10/16 02:39:35;;;;;;;21.55;14.10;;;;;;;;;;5062996;28;20857;-65
2023/10/16 02:42:05;;;;;;;26.23;14.15;;;;;;;;;;5053450;28;20822;-65
2023/10/16 02:44:32;;;;;;;25.57;14.83;;;;;;;;;;5053276;28;20414;-66
2023/10/16 02:47:05;;;;;;;25.52;15.15;;;;;;;;;;5054006;28;20405;-65
2023/10/16 02:49:33;;;;;;;28.90;15.50;;;;;;;;;;5062515;28;20406;-65
2023/10/16 02:52:00;;;;;;;25.35;15.93;;;;;;;;;;5064664;28;20438;-65
2023/10/16 02:54:27;;;;;;;28.48;15.70;;;;;;;;;;5062343;28;20424;-66
2023/10/16 02:56:59;;;;;;;28.48;15.43;;;;;;;;;;5062268;28;20405;-65
2023/10/16 02:59:26;;;;;;;24.45;16.20;;;;;;;;;;5061430;28;20425;-65
2023/10/16 03:01:54;;;;;;;27.20;16.17;;;;;;;;;;5062797;28;20404;-65
2023/10/16 03:04:24;;;;;;;26.58;15.77;;;;;;;;;;5063460;28;20408;-65
2023/10/16 03:06:53;;;;;;;26.95;16.38;;;;;;;;;;5069403;28;20423;-65
2023/10/16 03:09:27;;;;;;;25.77;15.17;;;;;;;;;;5071529;28;20420;-66
2023/10/16 03:12:04;;;;;;;26.45;15.20;;;;;;;;;;5068955;28;20412;-64
2023/10/16 03:14:44;;;;;;;26.10;15.30;;;;;;;;;;5075508;28;20494;-65
2023/10/16 03:17:17;;;;;;;26.33;16.27;;;;;;;;;;5070045;28;20507;-65
2023/10/16 03:19:48;;;;;;;29.37;16.43;;;;;;;;;;5069789;28;20509;-65
2023/10/16 03:22:15;;;;;;;25.77;15.57;;;;;;;;;;5067949;28;20417;-65
2023/10/16 03:24:42;;;;;;;27.55;14.65;;;;;;;;;;5067132;28;20890;-66
2023/10/16 03:27:09;;;;;;;27.05;15.75;;;;;;;;;;5067670;28;20890;-66
2023/10/16 03:29:37;;;;;;;26.70;16.38;;;;;;;;;;5064955;28;20460;-65
2023/10/16 03:32:04;;;;;;;26.25;16.58;;;;;;;;;;5065981;28;20503;-66
2023/10/16 03:34:31;;;;;;;26.75;15.98;;;;;;;;;;5066927;28;20434;-64
2023/10/16 03:37:04;;;;;;;29.55;16.10;;;;;;;;;;5064310;28;20420;-65
2023/10/16 03:39:31;;;;;;;28.35;15.98;;;;;;;;;;5065858;28;20429;-65
2023/10/16 03:41:58;;;;;;;27.27;15.32;;;;;;;;;;5061240;28;20496;-65
2023/10/16 03:44:26;;;;;;;26.45;16.13;;;;;;;;;;5067856;28;20463;-65
2023/10/16 03:46:55;;;;;;;30.95;17.63;;;;;;;;;;5063572;28;20414;-65
2023/10/16 03:49:22;;;;;;;34.03;18.13;;;;;;;;;;5066957;28;20426;-65
2023/10/16 03:51:50;;;;;;;26.48;17.02;;;;;;;;;;5066736;28;20824;-65
2023/10/16 03:54:31;;;;;;;28.35;16.38;;;;;;;;;;5063911;28;20464;-65
2023/10/16 03:57:00;;;;;;;30.67;16.50;;;;;;;;;;5067477;28;20420;-65
2023/10/16 03:59:29;;;;;;;30.30;16.83;;;;;;;;;;5062149;28;20879;-66
2023/10/16 04:01:56;;;;;;;28.95;17.30;;;;;;;;;;5068878;28;20412;-65
2023/10/16 04:04:25;;;;;;;31.88;18.60;;;;;;;;;;5064156;28;20926;-65
2023/10/16 04:06:56;;;;;;;31.58;17.80;;;;;;;;;;5061042;28;20916;-65
2023/10/16 04:09:29;;;;;;;36.03;18.25;;;;;;;;;;5057265;28;20409;-66
2023/10/16 04:11:57;;;;;;;32.65;18.20;;;;;;;;;;5063827;28;20507;-65
2023/10/16 04:14:44;;;;;;;33.70;18.58;;;;;;;;;;5059998;28;20888;-65
2023/10/16 04:17:11;;;;;;;34.55;18.50;;;;;;;;;;5055254;28;20484;-65
2023/10/16 04:19:52;;;;;;;31.27;17.98;;;;;;;;;;5065933;28;20429;-65
2023/10/16 04:22:18;;;;;;;32.15;18.50;;;;;;;;;;5059774;28;20417;-65
2023/10/16 04:24:47;;;;;;;30.80;17.92;;;;;;;;;;5062034;28;20434;-65
2023/10/16 04:27:29;;;;;;;34.15;18.90;;;;;;;;;;5061419;28;20418;-65
2023/10/16 04:32:55;;;;;;;31.40;18.20;;;;;;;;;;5061904;28;20402;-65
2023/10/16 04:35:29;;;;;;;33.90;19.15;;;;;;;;;;5060796;28;20864;-65
2023/10/16 04:37:56;;;;;;;35.20;19.70;;;;;;;;;;5062560;28;20497;-65
2023/10/16 04:41:37;;;;;;;37.05;19.75;;;;;;;;;;5060056;28;20433;-65
2023/10/16 04:43:19;;;;;;;43.67;20.35;;;;;;;;;;5060209;28;20488;-65
2023/10/16 04:46:15;;;;;;;39.60;21.33;;;;;;;;;;5059644;28;20496;-64
2023/10/16 04:48:48;;;;;;;40.90;21.43;;;;;;;;;;5059784;28;20916;-66
2023/10/16 04:51:22;;;;;;;42.20;20.98;;;;;;;;;;5059893;28;20467;-66
2023/10/16 04:53:58;;;;;;;49.15;21.65;;;;;;;;;;5060351;28;20500;-66
2023/10/16 04:56:57;;;;;;;37.40;21.13;;;;;;;;;;5059436;28;20405;-66
2023/10/16 05:02:15;;;;;;;43.85;22.08;;;;;;;;;;5055482;28;20969;-66
2023/10/16 05:13:39;;;;;;;47.80;22.42;;;;;;;;;;5094485;28;20521;-66
2023/10/16 05:19:02;;;;;;;44.75;22.83;;;;;;;;;;5096839;28;20751;-66
2023/10/16 06:16:34;;;;;;;48.72;24.20;;;;;;;;;;5106531;28;20820;-66
2023/10/16 06:19:07;;;;;;;52.40;25.42;;;;;;;;;;5112908;28;20450;-65
2023/10/16 06:21:34;;;;;;;51.58;24.02;;;;;;;;;;5101085;28;20892;-64
2023/10/16 06:24:17;;;;;;;50.28;22.90;;;;;;;;;;5101887;28;20415;-64
2023/10/16 06:26:46;;;;;;;46.00;22.20;;;;;;;;;;5094366;28;20498;-64
2023/10/16 06:29:13;;;;;;;52.47;23.70;;;;;;;;;;5098526;28;20424;-64
2023/10/16 06:31:50;;;;;;;48.88;22.90;;;;;;;;;;5097566;28;20903;-65
2023/10/16 06:34:17;;;;;;;50.95;22.50;;;;;;;;;;5095437;28;20400;-65
2023/10/16 06:36:44;;;;;;;48.03;22.65;;;;;;;;;;5102280;28;20469;-64
2023/10/16 06:39:22;;;;;;;50.30;21.95;;;;;;;;;;5098254;28;20404;-65
2023/10/16 06:41:53;;;;;;;50.90;21.40;;;;;;;;;;5100734;28;20400;-65
2023/10/16 06:44:21;;;;;;;45.55;21.17;;;;;;;;;;5100620;28;21009;-64
2023/10/16 06:46:50;;;;;;;48.15;22.40;;;;;;;;;;5102831;28;20471;-65
2023/10/16 06:49:26;;;;;;;41.42;21.08;;;;;;;;;;5101794;28;20473;-62
2023/10/16 06:51:53;;;;;;;43.70;22.30;;;;;;;;;;5100844;28;20814;-62
2023/10/16 06:54:20;;;;;;;41.53;20.10;;;;;;;;;;5101787;28;20410;-64
2023/10/16 06:56:47;;;;;;;40.65;20.33;;;;;;;;;;5097531;28;20410;-65
2023/10/16 06:59:16;;;;;;;39.33;19.80;;;;;;;;;;5102562;28;20416;-66
2023/10/16 07:01:46;;;;;;;38.50;20.15;;;;;;;;;;5099984;28;20414;-65
2023/10/16 07:04:15;;;;;;;38.10;20.00;;;;;;;;;;5094264;28;20505;-64
2023/10/16 07:06:44;;;;;;;38.35;19.92;;;;;;;;;;5099475;28;20410;-63
2023/10/16 07:09:12;;;;;;;41.95;20.27;;;;;;;;;;5103259;28;20460;-63
2023/10/16 07:11:42;;;;;;;37.70;19.77;;;;;;;;;;5100425;28;20847;-65
2023/10/16 07:14:12;;;;;;;42.45;20.67;;;;;;;;;;5090561;28;20421;-66
2023/10/16 07:16:40;;;;;;;44.67;21.85;;;;;;;;;;5099061;28;20518;-67
2023/10/16 07:19:08;;;;;;;43.88;21.40;;;;;;;;;;5097401;28;20913;-66
2023/10/16 07:21:36;;;;;;;45.70;22.27;;;;;;;;;;5095864;28;20404;-65
2023/10/16 07:24:04;;;;;;;39.75;20.88;;;;;;;;;;5101502;28;20782;-66
2023/10/16 07:26:34;;;;;;;40.60;21.53;;;;;;;;;;5098558;28;20421;-64
2023/10/16 07:29:02;;;;;;;43.38;21.30;;;;;;;;;;5098871;28;20422;-64
2023/10/16 07:31:29;;;;;;;38.97;21.13;;;;;;;;;;5094613;28;20502;-64
2023/10/16 07:33:59;;;;;;;39.07;20.97;;;;;;;;;;5095222;28;20478;-63
2023/10/16 07:36:27;;;;;;;35.70;19.45;;;;;;;;;;5099513;28;20407;-64
2023/10/16 07:38:55;;;;;;;36.97;20.40;;;;;;;;;;5092056;28;20406;-64
2023/10/16 07:41:23;;;;;;;36.17;20.50;;;;;;;;;;5100675;28;20412;-70
2023/10/16 07:43:56;;;;;;;36.35;20.15;;;;;;;;;;5088979;28;20492;-64
2023/10/16 07:46:30;;;;;;;34.70;20.30;;;;;;;;;;5099329;28;20414;-65
2023/10/16 07:49:01;;;;;;;33.88;19.55;;;;;;;;;;5090703;28;20426;-65
2023/10/16 07:51:28;;;;;;;31.45;18.58;;;;;;;;;;5096673;28;20777;-65
2023/10/16 07:54:00;;;;;;;29.58;17.77;;;;;;;;;;5099871;28;20410;-65
2023/10/16 07:56:28;;;;;;;34.22;18.77;;;;;;;;;;5100558;28;20412;-65
2023/10/16 07:58:56;;;;;;;30.27;17.33;;;;;;;;;;5102550;28;20481;-64
2023/10/16 08:01:42;;;;;;;29.77;17.23;;;;;;;;;;5096788;28;20406;-65
2023/10/16 08:04:34;;;;;;;28.23;16.70;;;;;;;;;;5093185;28;20406;-65
2023/10/16 08:07:05;;;;;;;32.40;19.10;;;;;;;;;;5098502;28;20504;-65
2023/10/16 08:09:57;;;;;;;30.65;19.13;;;;;;;;;;5098882;28;20422;-66
2023/10/16 08:12:35;;;;;;;31.42;17.70;;;;;;;;;;5095025;28;20430;-65
2023/10/16 08:15:08;;;;;;;30.75;17.67;;;;;;;;;;5102126;28;20773;-65
2023/10/16 08:17:35;;;;;;;30.60;17.77;;;;;;;;;;5098848;28;20410;-65
2023/10/16 08:20:06;;;;;;;30.13;19.17;;;;;;;;;;5098880;28;20400;-65
2023/10/16 08:22:33;;;;;;;29.27;18.33;;;;;;;;;;5097024;28;20402;-64
2023/10/16 08:25:04;;;;;;;31.00;18.63;;;;;;;;;;5099377;28;20887;-63
2023/10/16 08:27:47;;;;;;;29.70;18.50;;;;;;;;;;5098325;28;20914;-63
2023/10/16 08:30:18;;;;;;;32.42;18.02;;;;;;;;;;5101931;28;20477;-64
2023/10/16 08:32:54;;;;;;;27.23;17.60;;;;;;;;;;5099877;28;20844;-63
2023/10/16 08:35:21;;;;;;;26.48;17.50;;;;;;;;;;5090588;28;20513;-63
2023/10/16 08:37:56;;;;;;;28.80;17.67;;;;;;;;;;5091940;28;20413;-63
2023/10/16 08:40:32;;;;;;;26.95;16.10;;;;;;;;;;5101015;28;20402;-63
2023/10/16 08:43:01;;;;;;;28.20;17.80;;;;;;;;;;5097785;28;20906;-64
2023/10/16 08:45:29;;;;;;;29.02;18.42;;;;;;;;;;5097744;28;20414;-63
2023/10/16 08:47:57;;;;;;;26.42;16.88;;;;;;;;;;5100519;28;20526;-63
2023/10/16 08:50:40;;;;;;;28.13;17.25;;;;;;;;;;5100147;28;20484;-63
2023/10/16 08:53:07;;;;;;;30.67;17.45;;;;;;;;;;5098774;28;20758;-64
2023/10/16 08:55:37;;;;;;;25.10;16.27;;;;;;;;;;5102749;28;20414;-65
2023/10/16 08:58:05;;;;;;;24.40;16.77;;;;;;;;;;5106929;28;20748;-64
2023/10/16 09:00:32;;;;;;;23.48;15.95;;;;;;;;;;5098456;28;20414;-63
2023/10/16 09:03:01;;;;;;;28.02;17.40;;;;;;;;;;5103897;28;20417;-63
2023/10/16 09:05:29;;;;;;;28.27;17.17;;;;;;;;;;5097036;28;20410;-62
2023/10/16 09:07:57;;;;;;;26.58;16.80;;;;;;;;;;5097728;28;20955;-66
2023/10/16 09:10:29;;;;;;;26.20;16.27;;;;;;;;;;5103633;28;20424;-63
2023/10/16 09:13:13;;;;;;;26.55;16.02;;;;;;;;;;5102003;28;20453;-63
2023/10/16 09:15:45;;;;;;;25.15;14.88;;;;;;;;;;5099260;28;20441;-63
2023/10/16 09:18:12;;;;;;;24.75;16.05;;;;;;;;;;5105360;28;20401;-68
2023/10/16 09:20:41;;;;;;;25.15;15.07;;;;;;;;;;5110406;28;20763;-65
2023/10/16 09:23:13;;;;;;;27.80;15.57;;;;;;;;;;5105268;28;20459;-66
2023/10/16 09:25:43;;;;;;;23.23;15.27;;;;;;;;;;5097368;28;20429;-65
2023/10/16 09:28:18;;;;;;;23.27;15.45;;;;;;;;;;5098180;28;20414;-64
2023/10/16 09:30:46;;;;;;;23.93;15.00;;;;;;;;;;5095560;28;20461;-65
2023/10/16 09:33:15;;;;;;;25.67;15.43;;;;;;;;;;5100974;28;20448;-69
2023/10/16 09:35:44;;;;;;;21.83;14.35;;;;;;;;;;5095171;28;20411;-68
2023/10/16 09:38:18;;;;;;;23.08;14.60;;;;;;;;;;5099223;28;20503;-64
2023/10/16 09:40:58;;;;;;;23.90;14.45;;;;;;;;;;5103050;28;20421;-65
2023/10/16 09:43:27;;;;;;;23.80;14.15;;;;;;;;;;5099302;28;20406;-66
2023/10/16 09:48:39;;;;;;;23.30;13.38;;;;;;;;;;5101537;28;20804;-65
2023/10/16 09:51:10;;;;;;;19.97;12.60;;;;;;;;;;5100028;28;20434;-64
2023/10/16 09:53:39;;;;;;;20.40;11.65;;;;;;;;;;5098612;28;20469;-64
2023/10/16 09:56:09;;;;;;;18.75;12.55;;;;;;;;;;5099413;28;20460;-64
2023/10/16 09:58:40;;;;;;;19.52;12.60;;;;;;;;;;5110196;28;20437;-66
2023/10/16 10:01:09;;;;;;;23.60;12.57;;;;;;;;;;5097668;28;20417;-64
2023/10/16 10:03:38;;;;;;;17.95;12.38;;;;;;;;;;5098379;28;20415;-65
2023/10/16 10:06:20;;;;;;;18.67;10.35;;;;;;;;;;5098730;28;20452;-64
2023/10/16 10:09:20;;;;;;;17.45;8.75;;;;;;;;;;5100759;28;20468;-64
2023/10/16 10:11:44;;;;;;;12.23;7.68;;;;;;;;;;5104505;28;20400;-65
2023/10/16 10:14:26;;;;;;;17.02;8.10;;;;;;;;;;5103718;28;20467;-65
2023/10/16 10:16:56;;;;;;;13.63;7.72;;;;;;;;;;5099077;28;20833;-64
2023/10/16 10:19:24;;;;;;;23.27;12.38;;;;;;;;;;5102588;28;20768;-64
2023/10/16 10:21:53;;;;;;;20.00;11.88;;;;;;;;;;5101862;28;20409;-64
2023/10/16 10:24:21;;;;;;;14.48;7.57;;;;;;;;;;5103806;28;20447;-64
2023/10/16 10:26:49;;;;;;;12.48;6.68;;;;;;;;;;5104405;28;20408;-65
2023/10/16 10:29:20;;;;;;;14.45;6.53;;;;;;;;;;5104940;28;20487;-64
2023/10/16 10:31:47;;;;;;;14.43;6.75;;;;;;;;;;5103562;28;20477;-64
2023/10/16 10:34:22;;;;;;;11.70;7.05;;;;;;;;;;5101455;28;20480;-64
2023/10/16 10:36:50;;;;;;;13.73;6.53;;;;;;;;;;5098792;28;20410;-64
2023/10/16 10:39:44;;;;;;;13.05;6.70;;;;;;;;;;5104847;28;20472;-64
2023/10/16 10:42:16;;;;;;;11.38;6.20;;;;;;;;;;5097889;28;20485;-63
2023/10/16 10:44:54;;;;;;;11.18;5.28;;;;;;;;;;5102313;28;20951;-64
2023/10/16 10:47:21;;;;;;;12.48;6.03;;;;;;;;;;5099382;28;20402;-65
2023/10/16 10:49:50;;;;;;;13.40;5.97;;;;;;;;;;5102733;28;20938;-64
2023/10/16 10:52:18;;;;;;;9.20;5.40;;;;;;;;;;5104544;28;20413;-64
2023/10/16 10:54:49;;;;;;;10.02;5.05;;;;;;;;;;5102690;28;20414;-64
2023/10/16 10:57:19;;;;;;;12.98;6.57;;;;;;;;;;5101633;28;20421;-64
2023/10/16 10:59:54;;;;;;;11.57;5.90;;;;;;;;;;5103675;28;20404;-65
2023/10/16 11:02:33;;;;;;;12.70;6.88;;;;;;;;;;5104338;28;20495;-64
2023/10/16 11:05:22;;;;;;;13.00;7.07;;;;;;;;;;5098972;28;20413;-64
2023/10/16 11:08:17;;;;;;;14.75;6.93;;;;;;;;;;5100027;28;20493;-65
2023/10/16 11:10:46;;;;;;;13.25;7.63;;;;;;;;;;5103927;28;20975;-64
2023/10/16 11:13:14;;;;;;;12.93;7.32;;;;;;;;;;5102506;28;20500;-65
2023/10/16 11:15:47;;;;;;;15.73;8.25;;;;;;;;;;5100929;28;20414;-64
2023/10/16 11:18:18;;;;;;;14.18;7.57;;;;;;;;;;5099315;28;20471;-65
2023/10/16 11:20:46;;;;;;;14.85;6.82;;;;;;;;;;5100401;28;20407;-65
2023/10/16 11:23:14;;;;;;;9.82;6.57;;;;;;;;;;5091959;28;20425;-65
2023/10/16 11:25:44;;;;;;;13.10;6.78;;;;;;;;;;5094655;28;20408;-65
2023/10/16 11:28:48;;;;;;;11.75;6.47;;;;;;;;;;5084499;28;20419;-68
2023/10/16 11:31:18;;;;;;;11.18;6.28;;;;;;;;;;5091611;28;20884;-66
2023/10/16 11:33:45;;;;;;;12.07;6.15;;;;;;;;;;5092938;28;20509;-66
2023/10/16 11:36:13;;;;;;;12.05;5.88;;;;;;;;;;5094915;28;20981;-67
2023/10/16 11:38:41;;;;;;;9.85;5.03;;;;;;;;;;5094625;28;20961;-68
2023/10/16 11:41:12;;;;;;;8.83;4.50;;;;;;;;;;5097110;28;20431;-66
2023/10/16 11:43:47;;;;;;;9.97;4.20;;;;;;;;;;5098513;28;20487;-64
2023/10/16 11:46:28;;;;;;;8.70;3.95;;;;;;;;;;5093838;28;20407;-66
2023/10/16 11:48:58;;;;;;;8.23;3.70;;;;;;;;;;5097796;28;20493;-65
2023/10/16 11:51:26;;;;;;;4.95;2.92;;;;;;;;;;5096939;28;20429;-64
2023/10/16 11:53:59;;;;;;;7.72;4.25;;;;;;;;;;5098429;28;20412;-64
2023/10/16 11:56:26;;;;;;;21.42;12.52;;;;;;;;;;5093783;28;20439;-64
2023/10/16 11:58:54;;;;;;;7.23;3.73;;;;;;;;;;5099142;28;20406;-65
2023/10/16 12:01:21;;;;;;;8.68;3.58;;;;;;;;;;5097006;28;20485;-65
2023/10/16 12:03:48;;;;;;;8.50;4.00;;;;;;;;;;5099712;28;20657;-66
2023/10/16 12:06:18;;;;;;;6.55;3.60;;;;;;;;;;5093633;28;20414;-64
2023/10/16 12:08:45;;;;;;;5.93;3.25;;;;;;;;;;5099363;28;20412;-64
2023/10/16 12:11:14;;;;;;;7.75;4.13;;;;;;;;;;5102224;28;20507;-64
2023/10/16 12:13:41;;;;;;;8.85;4.13;;;;;;;;;;5103394;28;20409;-65
2023/10/16 12:16:08;;;;;;;7.00;3.60;;;;;;;;;;5098929;28;20920;-65
2023/10/16 12:18:35;;;;;;;8.85;3.47;;;;;;;;;;5101288;28;20408;-65
2023/10/16 12:21:08;;;;;;;7.93;3.95;;;;;;;;;;5101209;28;20808;-66
2023/10/16 12:23:38;;;;;;;8.10;3.90;;;;;;;;;;5096238;28;20410;-64
2023/10/16 12:26:05;;;;;;;7.50;4.03;;;;;;;;;;5100410;28;20404;-64
2023/10/16 12:28:33;;;;;;;7.55;4.60;;;;;;;;;;5102104;28;20457;-66
2023/10/16 12:31:02;;;;;;;11.10;4.40;;;;;;;;;;5099485;28;21128;-69
2023/10/16 12:33:30;;;;;;;8.48;4.00;;;;;;;;;;5100635;28;20424;-67
2023/10/16 12:36:01;;;;;;;6.60;3.53;;;;;;;;;;5098551;28;20413;-67
2023/10/16 12:38:28;;;;;;;6.45;3.45;;;;;;;;;;5097990;28;20513;-69
2023/10/16 12:40:58;;;;;;;6.55;3.45;;;;;;;;;;5099533;28;20831;-66
2023/10/16 12:43:27;;;;;;;6.35;4.20;;;;;;;;;;5095680;28;20584;-65
2023/10/16 12:45:56;;;;;;;6.63;4.00;;;;;;;;;;5100311;28;20408;-65
2023/10/16 12:48:23;;;;;;;7.93;4.63;;;;;;;;;;5101980;28;20415;-67
2023/10/16 12:50:50;;;;;;;8.20;4.20;;;;;;;;;;5099805;28;20943;-67
2023/10/16 12:53:18;;;;;;;11.02;4.30;;;;;;;;;;5100051;27;20800;-64
2023/10/16 12:55:49;;;;;;;6.78;4.40;;;;;;;;;;5101543;28;20404;-65
2023/10/16 12:58:18;;;;;;;8.43;4.03;;;;;;;;;;5100134;28;20410;-63
2023/10/16 13:00:50;;;;;;;6.88;4.45;;;;;;;;;;5099320;28;21146;-68
2023/10/16 13:03:19;;;;;;;7.50;3.60;;;;;;;;;;5094220;28;20809;-65
2023/10/16 13:05:46;;;;;;;5.93;3.72;;;;;;;;;;5091699;28;20416;-67
2023/10/16 13:08:13;;;;;;;4.78;2.92;;;;;;;;;;5096908;28;20427;-67
2023/10/16 13:10:40;;;;;;;6.85;3.30;;;;;;;;;;5104625;28;20422;-67
2023/10/16 13:13:09;;;;;;;5.85;2.90;;;;;;;;;;5100141;28;20518;-66
2023/10/16 13:15:38;;;;;;;8.63;3.53;;;;;;;;;;5100651;28;20510;-67
2023/10/16 13:18:11;;;;;;;5.13;3.50;;;;;;;;;;5092671;28;20408;-66
2023/10/16 13:20:38;;;;;;;5.55;3.15;;;;;;;;;;5095917;28;20509;-67
2023/10/16 13:23:06;;;;;;;5.75;3.70;;;;;;;;;;5098875;28;20400;-67
2023/10/16 13:25:34;;;;;;;7.50;3.65;;;;;;;;;;5095523;28;20410;-67
2023/10/16 13:28:03;;;;;;;7.43;3.70;;;;;;;;;;5101704;28;20416;-68
2023/10/16 13:30:32;;;;;;;9.55;3.70;;;;;;;;;;5100656;28;20445;-67
2023/10/16 13:33:06;;;;;;;7.05;4.07;;;;;;;;;;5102969;28;20773;-67
2023/10/16 13:35:38;;;;;;;6.32;3.67;;;;;;;;;;5094412;28;20415;-66
2023/10/16 13:38:07;;;;;;;10.27;3.65;;;;;;;;;;5091176;28;20829;-67
2023/10/16 13:40:35;;;;;;;6.43;3.30;;;;;;;;;;5093910;28;20488;-67
2023/10/16 13:43:10;;;;;;;7.35;3.83;;;;;;;;;;5098276;28;20414;-69
2023/10/16 13:45:37;;;;;;;6.95;4.47;;;;;;;;;;5097861;28;20422;-64
2023/10/16 13:48:09;;;;;;;6.47;4.20;;;;;;;;;;5096665;28;21097;-65
2023/10/16 13:50:37;;;;;;;7.88;4.50;;;;;;;;;;5102668;28;20899;-65
2023/10/16 13:53:04;;;;;;;8.93;4.50;;;;;;;;;;5098379;28;20883;-65
2023/10/16 13:55:31;;;;;;;8.15;3.92;;;;;;;;;;5100316;28;20408;-65
2023/10/16 13:57:59;;;;;;;8.40;5.03;;;;;;;;;;5100865;28;20410;-66
2023/10/16 14:00:35;;;;;;;6.78;4.57;;;;;;;;;;5097366;28;20823;-65
2023/10/16 14:03:05;;;;;;;7.63;4.50;;;;;;;;;;5099711;28;20434;-65
2023/10/16 14:05:35;;;;;;;5.78;4.10;;;;;;;;;;5093006;28;20421;-66
2023/10/16 14:08:03;;;;;;;6.03;4.75;;;;;;;;;;5101538;28;20400;-66
2023/10/16 14:10:30;;;;;;;11.02;5.13;;;;;;;;;;5097235;28;20834;-66
2023/10/16 14:13:00;;;;;;;8.43;5.28;;;;;;;;;;5103692;28;20406;-65
2023/10/16 14:15:32;;;;;;;10.57;5.47;;;;;;;;;;5101599;28;20415;-65
2023/10/16 14:17:59;;;;;;;9.77;4.90;;;;;;;;;;5100257;28;20834;-66
2023/10/16 14:20:35;;;;;;;9.90;5.00;;;;;;;;;;5102287;28;20410;-65
2023/10/16 14:23:09;;;;;;;8.15;4.45;;;;;;;;;;5099696;28;20417;-65
2023/10/16 14:25:41;;;;;;;9.15;4.90;;;;;;;;;;5100282;28;20410;-66
2023/10/16 14:28:25;;;;;;;7.93;5.05;;;;;;;;;;5094823;28;20847;-65
2023/10/16 14:30:54;;;;;;;7.50;4.90;;;;;;;;;;5097067;28;20780;-66
2023/10/16 14:33:21;;;;;;;8.77;4.90;;;;;;;;;;5090636;28;20505;-65
2023/10/16 14:35:49;;;;;;;7.55;4.78;;;;;;;;;;5097932;28;20500;-65
2023/10/16 14:38:19;;;;;;;8.23;5.10;;;;;;;;;;5099021;28;20501;-66
2023/10/16 14:40:46;;;;;;;8.20;4.82;;;;;;;;;;5093796;28;20418;-66
2023/10/16 14:43:15;;;;;;;7.17;4.80;;;;;;;;;;5092973;28;20410;-65
2023/10/16 14:45:42;;;;;;;8.27;4.80;;;;;;;;;;5092203;28;20406;-65
2023/10/16 14:48:10;;;;;;;8.60;4.73;;;;;;;;;;5098746;28;20411;-65
2023/10/16 14:50:37;;;;;;;7.53;4.32;;;;;;;;;;5091830;28;20429;-65
2023/10/16 14:53:06;;;;;;;7.65;4.20;;;;;;;;;;5093579;28;20421;-66
2023/10/16 14:55:36;;;;;;;11.43;4.90;;;;;;;;;;5100537;28;20487;-65
2023/10/16 14:58:03;;;;;;;6.57;4.40;;;;;;;;;;5087420;28;20856;-66
2023/10/16 15:00:32;;;;;;;6.38;4.45;;;;;;;;;;5098233;28;20495;-67
2023/10/16 15:02:59;;;;;;;7.97;4.63;;;;;;;;;;5095153;28;20454;-65
2023/10/16 15:05:26;;;;;;;7.13;4.95;;;;;;;;;;5102206;28;20491;-65
2023/10/16 15:07:53;;;;;;;9.15;4.78;;;;;;;;;;5103447;28;20418;-66
2023/10/16 15:10:21;;;;;;;8.93;4.80;;;;;;;;;;5101344;28;20796;-66
2023/10/16 15:12:50;;;;;;;9.40;4.65;;;;;;;;;;5102932;27;20564;-66
2023/10/16 15:15:17;;;;;;;9.52;4.30;;;;;;;;;;5102952;28;20809;-66
2023/10/16 15:17:44;;;;;;;9.35;4.60;;;;;;;;;;5101037;28;20459;-66
2023/10/16 15:20:14;;;;;;;7.28;4.00;;;;;;;;;;5102784;28;20477;-66
2023/10/16 15:22:42;;;;;;;6.57;3.67;;;;;;;;;;5103096;28;20404;-65
2023/10/16 15:25:11;;;;;;;6.30;3.08;;;;;;;;;;5100989;28;20819;-66
2023/10/16 15:27:38;;;;;;;5.63;3.27;;;;;;;;;;5101874;28;20890;-64
2023/10/16 15:30:10;;;;;;;5.20;2.72;;;;;;;;;;5102801;28;20886;-63
2023/10/16 15:32:37;;;;;;;5.80;3.15;;;;;;;;;;5100568;28;20498;-65
2023/10/16 15:35:04;;;;;;;5.43;3.00;;;;;;;;;;5094516;28;20419;-65
2023/10/16 15:37:32;;;;;;;5.57;2.60;;;;;;;;;;5104027;28;20430;-64
2023/10/16 15:39:59;;;;;;;6.53;2.60;;;;;;;;;;5122655;28;20437;-65
2023/10/16 15:42:26;;;;;;;3.55;2.35;;;;;;;;;;5103006;28;20889;-65
2023/10/16 15:44:53;;;;;;;4.97;2.60;;;;;;;;;;5096649;28;20429;-64
2023/10/16 15:47:23;;;;;;;6.43;2.60;;;;;;;;;;5097517;28;20446;-65
2023/10/16 15:49:50;;;;;;;7.45;3.38;;;;;;;;;;5099095;28;20493;-64
2023/10/16 15:52:17;;;;;;;4.93;3.38;;;;;;;;;;5102377;28;20431;-64
2023/10/16 15:54:44;;;;;;;6.72;3.55;;;;;;;;;;5098772;28;20437;-64
2023/10/16 15:57:12;;;;;;;7.55;3.72;;;;;;;;;;5101602;28;20967;-65
2023/10/16 15:59:39;;;;;;;5.77;3.13;;;;;;;;;;5099517;28;20489;-65
2023/10/16 16:02:06;;;;;;;5.65;3.47;;;;;;;;;;5102067;28;20499;-65
2023/10/16 16:04:35;;;;;;;5.03;3.78;;;;;;;;;;5097497;28;21101;-66